createdAt,value
2023-01-12T00:02:14.498Z,61.08
2023-01-12T00:04:42.771Z,62.20
2023-01-12T00:07:12.711Z,62.44
2023-01-12T00:09:41.220Z,62.30
2023-01-12T00:12:12.781Z,62.08
2023-01-12T00:14:41.260Z,62.05
2023-01-12T00:17:11.976Z,61.82
2023-01-12T00:19:40.212Z,61.95
2023-01-12T00:22:12.115Z,61.87
2023-01-12T00:24:42.225Z,61.61
2023-01-12T00:27:15.577Z,61.20
2023-01-12T00:29:44.463Z,61.25
2023-01-12T00:32:14.339Z,61.26
2023-01-12T00:34:42.435Z,61.07
2023-01-12T00:37:10.754Z,61.01
2023-01-12T00:39:43.096Z,61.10
2023-01-12T00:42:33.163Z,61.42
2023-01-12T00:45:18.869Z,61.56
2023-01-12T00:47:47.344Z,61.10
2023-01-12T00:50:17.836Z,61.32
2023-01-12T00:52:47.795Z,61.09
2023-01-12T00:55:16.111Z,60.89
2023-01-12T00:57:45.448Z,60.71
2023-01-12T01:00:14.823Z,60.64
2023-01-12T01:02:42.927Z,60.60
2023-01-12T01:05:11.089Z,60.51
2023-01-12T01:07:39.413Z,60.54
2023-01-12T01:10:08.685Z,60.78
2023-01-12T01:12:36.850Z,60.53
2023-01-12T01:15:07.520Z,60.18
2023-01-12T01:17:35.646Z,59.88
2023-01-12T01:20:05.128Z,59.69
2023-01-12T01:22:33.424Z,59.83
2023-01-12T01:25:01.411Z,59.59
2023-01-12T01:27:29.483Z,59.51
2023-01-12T01:29:57.764Z,59.63
2023-01-12T01:32:27.183Z,59.64
2023-01-12T01:34:55.218Z,59.60
2023-01-12T01:37:23.460Z,59.80
2023-01-12T01:39:51.478Z,59.78
2023-01-12T01:42:28.719Z,59.95
2023-01-12T01:44:58.768Z,59.83
2023-01-12T01:47:34.225Z,59.81
2023-01-12T01:50:04.813Z,59.82
2023-01-12T01:52:36.025Z,59.95
2023-01-12T01:55:09.587Z,59.88
2023-01-12T01:57:43.659Z,59.80
2023-01-12T02:00:14.028Z,59.86
2023-01-12T02:02:47.458Z,59.91
2023-01-12T02:05:20.066Z,59.94
2023-01-12T02:07:48.862Z,59.88
2023-01-12T02:10:17.860Z,59.69
2023-01-12T02:13:04.226Z,59.67
2023-01-12T02:15:58.433Z,59.66
2023-01-12T02:18:31.988Z,59.47
2023-01-12T02:21:10.497Z,59.41
2023-01-12T02:24:23.516Z,59.41
2023-01-12T02:27:22.921Z,59.46
2023-01-12T02:30:23.438Z,59.48
2023-01-12T02:33:05.451Z,59.43
2023-01-12T02:35:39.289Z,59.40
2023-01-12T02:38:17.136Z,59.44
2023-01-12T02:40:53.607Z,59.48
2023-01-12T02:43:26.118Z,59.52
2023-01-12T02:46:00.010Z,59.45
2023-01-12T02:48:35.323Z,59.55
2023-01-12T02:51:09.540Z,59.46
2023-01-12T02:53:43.237Z,59.48
2023-01-12T02:56:13.547Z,59.48
2023-01-12T02:58:46.127Z,59.57
2023-01-12T03:01:17.032Z,59.63
2023-01-12T03:03:49.069Z,59.53
2023-01-12T03:06:17.712Z,59.59
2023-01-12T03:08:48.967Z,59.55
2023-01-12T03:11:19.290Z,59.53
2023-01-12T03:13:50.395Z,59.63
2023-01-12T03:16:22.167Z,59.29
2023-01-12T03:18:57.402Z,59.36
2023-01-12T03:21:29.919Z,59.27
2023-01-12T03:24:05.418Z,59.34
2023-01-12T03:26:36.884Z,59.32
2023-01-12T03:29:11.235Z,59.54
2023-01-12T03:31:39.619Z,59.61
2023-01-12T03:34:10.106Z,59.78
2023-01-12T03:36:47.068Z,59.59
2023-01-12T03:39:23.751Z,59.77
2023-01-12T03:41:58.517Z,60.02
2023-01-12T03:44:32.418Z,59.79
2023-01-12T03:47:05.050Z,59.88
2023-01-12T03:49:40.552Z,59.83
2023-01-12T03:52:10.976Z,60.13
2023-01-12T03:54:41.329Z,59.90
2023-01-12T03:57:12.248Z,59.93
2023-01-12T03:59:40.895Z,59.75
2023-01-12T04:02:09.909Z,59.77
2023-01-12T04:04:39.674Z,59.45
2023-01-12T04:07:07.585Z,59.65
2023-01-12T04:09:35.563Z,59.64
2023-01-12T04:12:12.986Z,59.88
2023-01-12T04:14:43.143Z,59.77
2023-01-12T04:17:13.287Z,59.51
2023-01-12T04:19:43.492Z,59.53
2023-01-12T04:22:33.959Z,59.48
2023-01-12T04:25:01.915Z,59.76
2023-01-12T04:27:31.224Z,59.45
2023-01-12T04:30:00.163Z,59.60
2023-01-12T04:32:28.142Z,59.57
2023-01-12T04:34:57.836Z,59.44
2023-01-12T04:37:26.001Z,59.61
2023-01-12T04:39:54.131Z,59.43
2023-01-12T04:42:40.705Z,59.67
2023-01-12T04:45:10.222Z,59.45
2023-01-12T04:47:39.230Z,59.33
2023-01-12T04:50:11.138Z,59.22
2023-01-12T04:52:42.363Z,59.62
2023-01-12T04:55:10.961Z,59.33
2023-01-12T04:57:39.615Z,59.42
2023-01-12T05:00:09.571Z,59.58
2023-01-12T05:02:37.654Z,60.12
2023-01-12T05:05:08.514Z,60.00
2023-01-12T05:07:57.880Z,60.12
2023-01-12T05:10:25.322Z,60.05
2023-01-12T05:12:53.364Z,60.42
2023-01-12T05:15:21.570Z,59.99
2023-01-12T05:17:50.029Z,60.14
2023-01-12T05:20:19.466Z,59.85
2023-01-12T05:22:51.423Z,60.06
2023-01-12T05:25:20.014Z,60.13
2023-01-12T05:27:48.518Z,60.06
2023-01-12T05:30:17.499Z,60.21
2023-01-12T05:32:45.926Z,59.90
2023-01-12T05:35:13.899Z,60.07
2023-01-12T05:37:42.607Z,59.74
2023-01-12T05:40:15.397Z,59.76
2023-01-12T05:43:00.943Z,59.56
2023-01-12T05:45:29.149Z,59.49
2023-01-12T05:48:02.123Z,59.79
2023-01-12T05:50:30.362Z,59.57
2023-01-12T05:53:08.660Z,59.82
2023-01-12T05:55:39.514Z,59.78
2023-01-12T05:58:07.690Z,59.71
2023-01-12T06:00:35.871Z,59.53
2023-01-12T06:03:04.376Z,59.34
2023-01-12T06:05:32.327Z,59.63
2023-01-12T06:08:00.727Z,59.62
2023-01-12T06:10:28.910Z,59.73
2023-01-12T06:13:15.973Z,59.55
2023-01-12T06:15:44.422Z,59.30
2023-01-12T06:18:12.587Z,59.65
2023-01-12T06:20:40.570Z,59.57
2023-01-12T06:23:08.779Z,59.50
2023-01-12T06:25:36.721Z,59.58
2023-01-12T06:28:07.625Z,59.43
2023-01-12T06:30:36.375Z,59.18
2023-01-12T06:33:04.555Z,59.12
2023-01-12T06:35:32.681Z,59.48
2023-01-12T06:38:01.080Z,59.19
2023-01-12T06:40:29.221Z,59.39
2023-01-12T06:42:57.228Z,59.00
2023-01-12T06:45:26.951Z,59.13
2023-01-12T06:47:57.277Z,59.18
2023-01-12T06:50:25.734Z,59.06
2023-01-12T06:52:53.727Z,59.13
2023-01-12T06:55:22.087Z,58.98
2023-01-12T06:57:50.478Z,59.09
2023-01-12T07:00:19.130Z,59.41
2023-01-12T07:02:51.742Z,59.17
2023-01-12T07:05:20.191Z,58.95
2023-01-12T07:07:48.231Z,59.45
2023-01-12T07:10:17.446Z,59.11
2023-01-12T07:12:45.726Z,59.32
2023-01-12T07:15:15.465Z,59.15
2023-01-12T07:17:43.907Z,59.27
2023-01-12T07:20:13.748Z,58.88
2023-01-12T07:22:41.791Z,59.42
2023-01-12T07:25:10.520Z,59.16
2023-01-12T07:27:38.803Z,59.06
2023-01-12T07:30:07.984Z,59.06
2023-01-12T07:32:35.943Z,58.97
2023-01-12T07:35:04.343Z,58.96
2023-01-12T07:37:33.727Z,58.99
2023-01-12T07:40:01.701Z,58.78
2023-01-12T07:42:30.303Z,59.18
2023-01-12T07:44:58.286Z,59.38
2023-01-12T07:47:27.792Z,58.94
2023-01-12T07:49:55.973Z,58.68
2023-01-12T07:52:23.961Z,58.90
2023-01-12T07:54:53.264Z,58.74
2023-01-12T07:57:21.499Z,58.59
2023-01-12T07:59:49.521Z,59.11
2023-01-12T08:02:17.587Z,59.06
2023-01-12T08:04:46.495Z,58.98
2023-01-12T08:07:14.904Z,58.93
2023-01-12T08:09:42.912Z,58.88
2023-01-12T08:12:12.552Z,58.86
2023-01-12T08:14:42.359Z,58.82
2023-01-12T08:17:15.212Z,58.78
2023-01-12T08:19:46.910Z,58.72
2023-01-12T08:22:19.997Z,58.66
2023-01-12T08:24:53.264Z,58.47
2023-01-12T08:27:27.105Z,58.56
2023-01-12T08:29:58.619Z,58.76
2023-01-12T08:32:29.233Z,58.46
2023-01-12T08:35:01.657Z,58.44
2023-01-12T08:37:30.946Z,58.44
2023-01-12T08:39:59.604Z,58.31
2023-01-12T08:42:31.523Z,58.72
2023-01-12T08:45:00.136Z,58.35
2023-01-12T08:47:30.438Z,58.34
2023-01-12T08:50:00.548Z,58.43
2023-01-12T08:52:31.707Z,58.43
2023-01-12T08:54:59.786Z,58.22
2023-01-12T08:57:29.200Z,58.03
2023-01-12T08:59:57.840Z,58.17
2023-01-12T09:02:27.156Z,58.01
2023-01-12T09:04:55.495Z,58.10
2023-01-12T09:07:23.653Z,58.32
2023-01-12T09:09:51.662Z,58.23
2023-01-12T09:12:19.590Z,58.21
2023-01-12T09:14:49.027Z,58.38
2023-01-12T09:17:17.013Z,58.15
2023-01-12T09:19:48.092Z,58.39
2023-01-12T09:22:16.338Z,58.36
2023-01-12T09:24:45.297Z,58.33
2023-01-12T09:27:13.278Z,58.01
2023-01-12T09:29:41.579Z,57.83
2023-01-12T09:32:11.008Z,57.83
2023-01-12T09:34:39.009Z,58.11
2023-01-12T09:37:07.337Z,58.05
2023-01-12T09:39:35.454Z,58.02
2023-01-12T09:42:24.353Z,57.61
2023-01-12T09:45:11.735Z,57.74
2023-01-12T09:47:49.824Z,57.93
2023-01-12T09:50:23.234Z,57.18
2023-01-12T09:52:56.788Z,57.76
2023-01-12T09:55:27.010Z,57.55
2023-01-12T09:58:27.165Z,57.52
2023-01-12T10:00:57.777Z,57.42
2023-01-12T10:03:32.173Z,57.29
2023-01-12T10:06:01.494Z,57.16
2023-01-12T10:08:35.307Z,57.35
2023-01-12T10:11:12.803Z,56.84
2023-01-12T10:14:10.534Z,56.86
2023-01-12T10:16:51.335Z,57.02
2023-01-12T10:19:26.778Z,56.70
2023-01-12T10:21:55.427Z,57.01
2023-01-12T10:24:25.648Z,56.93
2023-01-12T10:27:01.157Z,57.02
2023-01-12T10:29:31.580Z,56.80
2023-01-12T10:31:59.560Z,56.80
2023-01-12T10:34:30.245Z,57.06
2023-01-12T10:37:08.857Z,56.94
2023-01-12T10:39:39.707Z,57.05
2023-01-12T10:42:40.864Z,56.96
2023-01-12T10:45:18.743Z,56.59
2023-01-12T10:47:49.003Z,57.23
2023-01-12T10:50:24.638Z,57.15
2023-01-12T10:53:00.895Z,56.67
2023-01-12T10:55:33.421Z,56.52
2023-01-12T10:58:02.059Z,56.86
2023-01-12T11:00:30.977Z,56.66
2023-01-12T11:02:59.176Z,56.67
2023-01-12T11:05:31.759Z,56.18
2023-01-12T11:07:59.970Z,56.08
2023-01-12T11:10:30.376Z,55.79
2023-01-12T11:13:00.425Z,55.84
2023-01-12T11:15:30.034Z,56.16
2023-01-12T11:18:13.607Z,55.68
2023-01-12T11:20:48.661Z,55.40
2023-01-12T11:23:21.620Z,55.42
2023-01-12T11:25:53.048Z,55.75
2023-01-12T11:28:24.872Z,55.77
2023-01-12T11:30:57.963Z,55.60
2023-01-12T11:33:30.026Z,55.68
2023-01-12T11:36:04.289Z,55.70
2023-01-12T11:38:36.367Z,55.56
2023-01-12T11:41:10.801Z,55.41
2023-01-12T11:43:50.823Z,55.46
2023-01-12T11:46:24.987Z,55.50
2023-01-12T11:49:01.316Z,55.70
2023-01-12T11:51:31.030Z,55.53
2023-01-12T11:53:59.109Z,55.43
2023-01-12T11:56:51.125Z,55.36
2023-01-12T11:59:25.639Z,54.87
2023-01-12T12:02:01.664Z,55.11
2023-01-12T12:04:47.021Z,55.23
2023-01-12T12:07:33.803Z,55.12
2023-01-12T12:10:18.463Z,54.76
2023-01-12T12:13:13.229Z,54.90
2023-01-12T12:15:50.120Z,55.40
2023-01-12T12:18:32.823Z,55.30
2023-01-12T12:21:12.173Z,55.72
2023-01-12T12:23:54.879Z,55.60
2023-01-12T12:26:27.994Z,55.56
2023-01-12T12:29:22.621Z,55.70
2023-01-12T12:32:01.756Z,55.43
2023-01-12T12:34:50.613Z,55.68
2023-01-12T12:37:27.690Z,56.28
2023-01-12T12:40:02.320Z,56.72
2023-01-12T12:43:13.716Z,56.86
2023-01-12T12:45:48.143Z,56.73
2023-01-12T12:48:19.253Z,56.66
2023-01-12T12:50:56.837Z,56.62
2023-01-12T12:53:28.312Z,56.96
2023-01-12T12:56:02.431Z,56.87
2023-01-12T12:58:50.031Z,57.25
2023-01-12T13:01:58.403Z,57.56
2023-01-12T13:05:03.811Z,57.30
2023-01-12T13:08:02.979Z,56.63
2023-01-12T13:10:32.250Z,56.63
2023-01-12T13:13:17.562Z,57.19
2023-01-12T13:15:46.840Z,57.31
2023-01-12T13:18:42.857Z,57.53
2023-01-12T13:21:29.852Z,57.11
2023-01-12T13:24:26.913Z,57.20
2023-01-12T13:26:57.673Z,56.85
2023-01-12T13:29:44.230Z,57.14
2023-01-12T13:32:42.008Z,56.88
2023-01-12T13:35:44.676Z,56.72
2023-01-12T13:38:20.393Z,56.67
2023-01-12T13:40:56.010Z,56.79
2023-01-12T13:43:27.494Z,56.65
2023-01-12T13:46:00.887Z,56.76
2023-01-12T13:48:31.195Z,57.12
2023-01-12T13:51:02.511Z,56.86
2023-01-12T13:53:33.444Z,56.96
2023-01-12T13:56:04.696Z,56.73
2023-01-12T13:58:40.800Z,56.39
2023-01-12T14:01:19.075Z,56.50
2023-01-12T14:04:05.942Z,56.26
2023-01-12T14:06:45.215Z,56.30
2023-01-12T14:09:23.274Z,56.23
2023-01-12T14:12:16.186Z,56.00
2023-01-12T14:15:24.094Z,56.08
2023-01-12T14:17:57.556Z,56.38
2023-01-12T14:20:28.042Z,56.51
2023-01-12T14:23:14.555Z,56.28
2023-01-12T14:25:43.268Z,55.98
2023-01-12T14:28:20.405Z,55.90
2023-01-12T14:30:52.605Z,55.90
2023-01-12T14:33:22.301Z,56.33
2023-01-12T14:35:54.699Z,56.17
2023-01-12T14:38:25.369Z,56.39
2023-01-12T14:41:01.085Z,56.38
2023-01-12T14:43:51.887Z,55.90
2023-01-12T14:46:26.689Z,56.30
2023-01-12T14:49:00.812Z,56.32
2023-01-12T14:51:34.013Z,56.15
2023-01-12T14:54:17.417Z,56.45
2023-01-12T14:56:50.954Z,56.64
2023-01-12T14:59:23.762Z,56.73
2023-01-12T15:01:52.818Z,56.44
2023-01-12T15:04:24.389Z,56.77
2023-01-12T15:07:04.229Z,56.71
2023-01-12T15:09:34.336Z,56.49
2023-01-12T15:12:25.418Z,56.25
2023-01-12T15:14:54.921Z,56.23
2023-01-12T15:17:40.917Z,56.29
2023-01-12T15:20:31.167Z,56.47
2023-01-12T15:23:16.975Z,56.33
2023-01-12T15:25:46.488Z,56.19
2023-01-12T15:28:14.834Z,56.64
2023-01-12T15:30:44.761Z,56.59
2023-01-12T15:33:13.962Z,56.58
2023-01-12T15:35:46.281Z,56.55
2023-01-12T15:38:16.241Z,57.02
2023-01-12T15:40:46.567Z,56.84
2023-01-12T15:43:15.653Z,56.76
2023-01-12T15:45:46.206Z,56.83
2023-01-12T15:48:15.215Z,56.50
2023-01-12T15:50:45.027Z,56.77
2023-01-12T15:53:15.396Z,56.93
2023-01-12T15:55:43.881Z,56.68
2023-01-12T15:58:12.232Z,56.83
2023-01-12T16:00:40.315Z,56.79
2023-01-12T16:03:28.843Z,56.66
2023-01-12T16:06:00.593Z,56.57
2023-01-12T16:08:29.588Z,56.50
2023-01-12T16:11:13.601Z,56.32
2023-01-12T16:13:42.298Z,56.65
2023-01-12T16:16:16.234Z,56.27
2023-01-12T16:18:46.431Z,55.98
2023-01-12T16:21:16.806Z,56.35
2023-01-12T16:23:45.424Z,56.23
2023-01-12T16:26:13.454Z,56.21
2023-01-12T16:28:41.492Z,56.38
2023-01-12T16:31:12.833Z,56.86
2023-01-12T16:33:42.148Z,56.57
2023-01-12T16:36:15.834Z,56.63
2023-01-12T16:38:43.925Z,56.24
2023-01-12T16:41:14.152Z,56.37
2023-01-12T16:43:42.840Z,56.39
2023-01-12T16:46:14.769Z,56.52
2023-01-12T16:48:44.119Z,56.72
2023-01-12T16:51:14.294Z,56.30
2023-01-12T16:53:42.954Z,56.52
2023-01-12T16:56:12.001Z,56.56
2023-01-12T16:58:41.851Z,56.50
2023-01-12T17:01:12.397Z,56.45
2023-01-12T17:03:41.768Z,56.54
2023-01-12T17:06:11.789Z,56.84
2023-01-12T17:08:42.455Z,56.65
2023-01-12T17:11:13.496Z,56.58
2023-01-12T17:13:41.925Z,56.44
2023-01-12T17:16:11.808Z,56.62
2023-01-12T17:18:40.614Z,56.87
2023-01-12T17:21:16.491Z,56.72
2023-01-12T17:23:51.016Z,56.67
2023-01-12T17:26:19.781Z,57.13
2023-01-12T17:28:48.550Z,57.25
2023-01-12T17:31:19.291Z,57.16
2023-01-12T17:33:47.501Z,57.22
2023-01-12T17:36:17.090Z,57.44
2023-01-12T17:38:45.398Z,57.62
2023-01-12T17:41:30.725Z,57.80
2023-01-12T17:43:59.915Z,57.76
2023-01-12T17:46:27.971Z,57.80
2023-01-12T17:48:58.563Z,57.97
2023-01-12T17:51:27.241Z,57.77
2023-01-12T17:53:55.826Z,57.97
2023-01-12T17:56:25.394Z,58.17
2023-01-12T17:58:54.953Z,57.97
2023-01-12T18:01:24.742Z,57.79
2023-01-12T18:03:53.680Z,57.93
2023-01-12T18:06:28.385Z,57.67
2023-01-12T18:09:06.531Z,57.90
2023-01-12T18:11:37.417Z,57.66
2023-01-12T18:14:06.946Z,57.83
2023-01-12T18:16:39.579Z,57.51
2023-01-12T18:19:14.927Z,57.62
2023-01-12T18:21:50.198Z,57.42
2023-01-12T18:24:19.825Z,57.45
2023-01-12T18:26:50.891Z,57.34
2023-01-12T18:29:22.719Z,57.42
2023-01-12T18:31:51.057Z,57.57
2023-01-12T18:34:20.026Z,57.71
2023-01-12T18:36:48.798Z,57.48
2023-01-12T18:39:19.149Z,57.58
2023-01-12T18:42:05.723Z,57.28
2023-01-12T18:44:35.690Z,57.54
2023-01-12T18:47:24.482Z,57.24
2023-01-12T18:49:54.305Z,57.09
2023-01-12T18:52:40.562Z,57.19
2023-01-12T18:55:09.098Z,56.87
2023-01-12T18:57:37.463Z,57.06
2023-01-12T19:00:17.004Z,57.09
2023-01-12T19:02:45.907Z,57.12
2023-01-12T19:05:20.691Z,57.10
2023-01-12T19:08:04.582Z,57.08
2023-01-12T19:10:34.670Z,56.96
2023-01-12T19:13:17.193Z,57.14
2023-01-12T19:16:03.980Z,57.47
2023-01-12T19:18:32.355Z,57.43
2023-01-12T19:21:17.011Z,57.59
2023-01-12T19:24:03.021Z,57.28
2023-01-12T19:26:48.509Z,57.58
2023-01-12T19:29:16.773Z,57.42
2023-01-12T19:31:46.087Z,57.50
2023-01-12T19:34:14.181Z,57.66
2023-01-12T19:36:42.546Z,58.01
2023-01-12T19:39:11.251Z,57.77
2023-01-12T19:41:56.822Z,57.75
2023-01-12T19:44:25.210Z,57.70
2023-01-12T19:46:54.399Z,58.24
2023-01-12T19:49:22.396Z,58.31
2023-01-12T19:51:50.844Z,57.95
2023-01-12T19:54:18.848Z,57.95
2023-01-12T19:56:47.652Z,57.92
2023-01-12T19:59:15.917Z,57.90
2023-01-12T20:01:44.024Z,58.02
2023-01-12T20:04:13.696Z,58.34
2023-01-12T20:06:41.721Z,58.20
2023-01-12T20:09:09.752Z,58.01
2023-01-12T20:11:38.050Z,58.24
2023-01-12T20:14:06.142Z,58.08
2023-01-12T20:16:34.641Z,58.15
2023-01-12T20:19:04.151Z,58.29
2023-01-12T20:21:33.436Z,58.33
2023-01-12T20:24:02.508Z,58.36
2023-01-12T20:26:30.825Z,58.44
2023-01-12T20:29:00.463Z,58.33
2023-01-12T20:31:28.835Z,58.50
2023-01-12T20:33:57.160Z,58.26
2023-01-12T20:36:25.314Z,58.09
2023-01-12T20:38:54.767Z,58.79
2023-01-12T20:41:23.448Z,58.33
2023-01-12T20:43:51.529Z,58.23
2023-01-12T20:46:19.602Z,58.50
2023-01-12T20:48:47.901Z,58.44
2023-01-12T20:51:17.241Z,58.37
2023-01-12T20:53:45.209Z,58.68
2023-01-12T20:56:15.119Z,58.49
2023-01-12T20:58:43.134Z,58.66
2023-01-12T21:01:11.991Z,58.20
2023-01-12T21:03:40.438Z,58.29
2023-01-12T21:06:09.742Z,58.46
2023-01-12T21:08:39.016Z,58.35
2023-01-12T21:11:07.367Z,58.61
2023-01-12T21:13:36.838Z,58.41
2023-01-12T21:16:06.875Z,58.03
2023-01-12T21:18:36.036Z,58.76
2023-01-12T21:21:04.763Z,58.41
2023-01-12T21:23:33.058Z,58.07
2023-01-12T21:26:01.466Z,57.87
2023-01-12T21:28:30.605Z,57.87
2023-01-12T21:31:03.036Z,57.97
2023-01-12T21:33:31.817Z,57.84
2023-01-12T21:36:00.600Z,58.18
2023-01-12T21:38:28.910Z,57.74
2023-01-12T21:41:02.894Z,58.09
2023-01-12T21:43:30.206Z,57.81
2023-01-12T21:46:06.422Z,57.82
2023-01-12T21:48:34.639Z,57.89
2023-01-12T21:51:03.483Z,57.81
2023-01-12T21:53:31.930Z,57.73
2023-01-12T21:56:01.780Z,57.57
2023-01-12T21:58:32.751Z,57.69
2023-01-12T22:01:01.358Z,57.76
2023-01-12T22:03:30.943Z,57.67
2023-01-12T22:06:05.460Z,57.16
2023-01-12T22:08:34.705Z,57.12
2023-01-12T22:11:07.865Z,57.32
2023-01-12T22:13:36.445Z,57.05
2023-01-12T22:16:05.478Z,57.00
2023-01-12T22:18:35.599Z,57.20
2023-01-12T22:21:05.469Z,57.09
2023-01-12T22:23:34.079Z,57.08
2023-01-12T22:26:03.135Z,57.25
2023-01-12T22:28:33.591Z,56.96
2023-01-12T22:31:08.161Z,56.96
2023-01-12T22:33:38.082Z,56.83
2023-01-12T22:36:07.332Z,56.86
2023-01-12T22:38:35.348Z,56.91
2023-01-12T22:41:07.104Z,56.77
2023-01-12T22:43:40.515Z,56.87
2023-01-12T22:46:15.705Z,57.24
2023-01-12T22:48:45.544Z,57.09
2023-01-12T22:51:13.911Z,57.25
2023-01-12T22:53:42.719Z,57.58
2023-01-12T22:56:12.010Z,57.32
2023-01-12T22:58:40.448Z,57.55
2023-01-12T23:01:10.417Z,57.62
2023-01-12T23:03:59.853Z,57.76
2023-01-12T23:06:28.911Z,57.62
2023-01-12T23:08:57.072Z,57.66
2023-01-12T23:11:27.718Z,57.85
2023-01-12T23:13:57.117Z,57.67
2023-01-12T23:16:25.810Z,57.73
2023-01-12T23:18:55.506Z,57.52
2023-01-12T23:21:27.600Z,57.73
2023-01-12T23:23:57.421Z,57.33
2023-01-12T23:26:28.063Z,57.38
2023-01-12T23:28:59.384Z,57.39
2023-01-12T23:31:30.121Z,57.20
2023-01-12T23:33:58.723Z,57.19
2023-01-12T23:36:30.785Z,57.07
2023-01-12T23:39:00.886Z,56.97
2023-01-12T23:41:30.737Z,56.97
2023-01-12T23:44:01.363Z,56.72
2023-01-12T23:46:31.308Z,56.50
2023-01-12T23:49:00.496Z,56.81
2023-01-12T23:51:30.910Z,56.87
2023-01-12T23:54:01.350Z,56.46
2023-01-12T23:56:31.216Z,56.74
2023-01-12T23:58:59.871Z,56.68
